createdAt,value
2019-05-26T00:02:38.270Z,97025.55
2019-05-26T00:07:44.587Z,97022.31
2019-05-26T00:12:50.975Z,97018.41
2019-05-26T00:17:57.007Z,97021.36
2019-05-26T00:23:03.440Z,97014.89
2019-05-26T00:28:09.883Z,97016.08
2019-05-26T00:33:15.984Z,97010.98
2019-05-26T00:38:22.283Z,97008.46
2019-05-26T00:43:28.461Z,96994.70
2019-05-26T00:48:34.619Z,96994.70
2019-05-26T00:53:41.188Z,96991.86
2019-05-26T00:58:48.275Z,96995.63
2019-05-26T01:03:54.442Z,96980.77
2019-05-26T01:09:01.495Z,96992.36
2019-05-26T01:14:08.022Z,96987.80
2019-05-26T01:19:14.579Z,96987.86
2019-05-26T01:24:20.747Z,96974.41
2019-05-26T01:29:27.544Z,96971.20
2019-05-26T01:34:33.765Z,96979.43
2019-05-26T01:39:40.519Z,96970.43
2019-05-26T01:44:46.622Z,96970.39
2019-05-26T01:49:53.437Z,96976.55
2019-05-26T01:54:59.475Z,96971.86
2019-05-26T02:00:06.384Z,96976.04
2019-05-26T02:05:13.224Z,96979.84
2019-05-26T02:10:19.932Z,96971.59
2019-05-26T02:15:26.741Z,96970.99
2019-05-26T02:20:32.786Z,96970.80
2019-05-26T02:25:39.588Z,96975.08
2019-05-26T02:30:46.164Z,96979.55
2019-05-26T02:35:52.698Z,96971.70
2019-05-26T02:40:59.573Z,96974.41
2019-05-26T02:46:05.765Z,96964.29
2019-05-26T02:51:12.129Z,96972.05
2019-05-26T02:56:18.857Z,96984.57
2019-05-26T03:01:25.715Z,96977.13
2019-05-26T03:06:34.394Z,96973.44
2019-05-26T03:11:43.692Z,96973.36
2019-05-26T03:16:51.871Z,96975.22
2019-05-26T03:22:00.435Z,96974.73
2019-05-26T03:27:07.148Z,96984.75
2019-05-26T03:32:14.007Z,96986.56
2019-05-26T03:37:20.429Z,96992.98
2019-05-26T03:42:26.815Z,97002.56
2019-05-26T03:47:33.946Z,97010.09
2019-05-26T03:52:40.591Z,97006.41
2019-05-26T03:57:47.035Z,97013.50
2019-05-26T04:02:53.595Z,97005.78
2019-05-26T04:08:04.358Z,97010.39
2019-05-26T04:13:08.270Z,97006.95
2019-05-26T04:18:17.825Z,97015.02
2019-05-26T04:23:27.389Z,97017.74
2019-05-26T04:28:34.765Z,97013.71
2019-05-26T04:33:41.238Z,97016.47
2019-05-26T04:38:47.313Z,97011.70
2019-05-26T04:43:53.564Z,97002.34
2019-05-26T04:48:59.903Z,97007.59
2019-05-26T04:54:06.501Z,96998.63
2019-05-26T04:59:12.895Z,97010.11
2019-05-26T05:04:19.665Z,97022.98
2019-05-26T05:09:26.203Z,97024.81
2019-05-26T05:14:32.708Z,97030.89
2019-05-26T05:19:38.877Z,97031.44
2019-05-26T05:24:45.610Z,97038.03
2019-05-26T05:29:52.078Z,97028.20
2019-05-26T05:34:58.556Z,97034.45
2019-05-26T05:40:05.885Z,97026.30
2019-05-26T05:45:12.381Z,97029.77
2019-05-26T05:50:18.822Z,97021.55
2019-05-26T05:55:25.241Z,97030.34
2019-05-26T06:00:31.726Z,97030.41
2019-05-26T06:05:37.905Z,97037.02
2019-05-26T06:10:44.422Z,97027.89
2019-05-26T06:15:51.075Z,97034.73
2019-05-26T06:20:57.457Z,97045.70
2019-05-26T06:26:03.686Z,97040.59
2019-05-26T06:31:10.185Z,97043.80
2019-05-26T06:36:16.569Z,97046.44
2019-05-26T06:41:32.745Z,97052.86
2019-05-26T06:46:31.213Z,97046.50
2019-05-26T06:51:38.113Z,97040.25
2019-05-26T06:56:44.188Z,97045.94
2019-05-26T07:01:50.670Z,97050.31
2019-05-26T07:06:57.460Z,97038.34
2019-05-26T07:12:03.656Z,97058.70
2019-05-26T07:17:10.119Z,97048.12
2019-05-26T07:22:16.913Z,97053.58
2019-05-26T07:27:23.702Z,97054.06
2019-05-26T07:32:30.506Z,97060.91
2019-05-26T07:37:36.622Z,97061.72
2019-05-26T07:42:43.467Z,97062.80
2019-05-26T07:47:50.356Z,97059.94
2019-05-26T07:52:56.841Z,97056.26
2019-05-26T07:58:03.637Z,97050.26
2019-05-26T08:03:10.078Z,97053.41
2019-05-26T08:08:16.284Z,97051.40
2019-05-26T08:13:23.402Z,97049.22
2019-05-26T08:18:30.298Z,97051.89
2019-05-26T08:23:37.021Z,97056.30
2019-05-26T08:28:43.369Z,97052.58
2019-05-26T08:33:49.772Z,97045.44
2019-05-26T08:38:56.138Z,97042.05
2019-05-26T08:44:02.259Z,97041.75
2019-05-26T08:49:08.794Z,97038.30
2019-05-26T08:54:14.997Z,97031.72
2019-05-26T08:59:21.091Z,97027.57
2019-05-26T09:04:28.096Z,97021.83
2019-05-26T09:09:34.284Z,97013.92
2019-05-26T09:14:40.737Z,97019.52
2019-05-26T09:19:47.306Z,97013.95
2019-05-26T09:24:54.087Z,97020.29
2019-05-26T09:30:00.947Z,97011.02
2019-05-26T09:35:07.928Z,97014.64
2019-05-26T09:40:14.562Z,97008.20
2019-05-26T09:45:21.312Z,97015.59
2019-05-26T09:50:27.735Z,97009.38
2019-05-26T09:55:34.130Z,97005.84
2019-05-26T10:00:40.658Z,97008.74
2019-05-26T10:05:47.103Z,97002.88
2019-05-26T10:10:54.095Z,97000.75
2019-05-26T10:16:00.194Z,96994.25
2019-05-26T10:21:06.365Z,96993.20
2019-05-26T10:26:12.384Z,96992.45
2019-05-26T10:31:18.679Z,96985.51
2019-05-26T10:36:24.782Z,96984.00
2019-05-26T10:41:31.144Z,96989.61
2019-05-26T10:46:37.650Z,96987.05
2019-05-26T10:51:44.447Z,96978.72
2019-05-26T10:56:51.229Z,96975.13
2019-05-26T11:01:57.907Z,96972.05
2019-05-26T11:07:04.290Z,96969.69
2019-05-26T11:12:10.676Z,96971.31
2019-05-26T11:17:17.475Z,96959.02
2019-05-26T11:22:23.951Z,96950.93
2019-05-26T11:27:30.650Z,96950.27
2019-05-26T11:32:37.439Z,96949.92
2019-05-26T11:37:43.534Z,96944.91
2019-05-26T11:42:51.587Z,96936.41
2019-05-26T11:47:58.319Z,96932.47
2019-05-26T11:53:04.502Z,96921.22
2019-05-26T11:58:10.896Z,96925.72
2019-05-26T12:03:16.987Z,96918.48
2019-05-26T12:08:23.399Z,96915.39
2019-05-26T12:13:29.721Z,96911.58
2019-05-26T12:18:38.864Z,96904.30
2019-05-26T12:23:45.571Z,96898.46
2019-05-26T12:28:52.046Z,96893.33
2019-05-26T12:33:58.134Z,96889.06
2019-05-26T12:39:05.527Z,96880.67
2019-05-26T12:44:12.223Z,96875.64
2019-05-26T12:49:18.488Z,96870.38
2019-05-26T12:54:24.734Z,96857.62
2019-05-26T12:59:30.826Z,96864.77
2019-05-26T13:04:36.995Z,96858.80
2019-05-26T13:09:43.823Z,96859.01
2019-05-26T13:15:05.105Z,96847.72
2019-05-26T13:19:58.646Z,96842.16
2019-05-26T13:25:05.747Z,96843.54
2019-05-26T13:30:13.491Z,96827.36
2019-05-26T13:35:20.251Z,96832.13
2019-05-26T13:40:29.519Z,96823.25
2019-05-26T13:45:35.156Z,96820.34
2019-05-26T13:50:42.049Z,96817.73
2019-05-26T13:55:48.841Z,96820.44
2019-05-26T14:00:55.355Z,96825.72
2019-05-26T14:06:02.105Z,96811.05
2019-05-26T14:11:08.824Z,96817.77
2019-05-26T14:16:15.007Z,96814.58
2019-05-26T14:21:21.776Z,96814.95
2019-05-26T14:26:28.295Z,96805.19
2019-05-26T14:31:34.783Z,96806.14
2019-05-26T14:36:41.225Z,96801.45
2019-05-26T14:41:48.334Z,96807.99
2019-05-26T14:46:54.499Z,96791.21
2019-05-26T14:52:01.364Z,96794.97
2019-05-26T14:57:08.200Z,96794.83
2019-05-26T15:02:14.987Z,96791.83
2019-05-26T15:07:21.183Z,96784.06
2019-05-26T15:12:27.957Z,96780.30
2019-05-26T15:17:34.954Z,96787.99
2019-05-26T15:22:41.761Z,96778.69
2019-05-26T15:27:48.550Z,96778.25
2019-05-26T15:32:54.929Z,96781.39
2019-05-26T15:38:01.472Z,96784.58
2019-05-26T15:43:07.878Z,96772.98
2019-05-26T15:48:14.280Z,96772.23
2019-05-26T15:53:20.961Z,96772.53
2019-05-26T15:58:28.115Z,96765.72
2019-05-26T16:03:34.858Z,96759.52
2019-05-26T16:08:40.960Z,96751.88
2019-05-26T16:13:47.846Z,96758.70
2019-05-26T16:18:54.155Z,96761.00
2019-05-26T16:24:00.632Z,96752.73
2019-05-26T16:29:07.372Z,96748.20
2019-05-26T16:34:13.760Z,96745.72
2019-05-26T16:39:34.390Z,96740.53
2019-05-26T16:44:28.582Z,96747.17
2019-05-26T16:49:35.457Z,96749.84
2019-05-26T16:54:41.649Z,96745.84
2019-05-26T16:59:47.978Z,96740.83
2019-05-26T17:04:54.722Z,96731.42
2019-05-26T17:10:01.095Z,96728.58
2019-05-26T17:15:08.095Z,96716.63
2019-05-26T17:20:16.154Z,96720.91
2019-05-26T17:25:22.855Z,96716.52
2019-05-26T17:30:29.714Z,96716.81
2019-05-26T17:35:35.880Z,96709.95
2019-05-26T17:40:42.259Z,96711.50
2019-05-26T17:45:49.118Z,96710.10
2019-05-26T17:50:55.747Z,96715.30
2019-05-26T17:56:02.845Z,96704.86
2019-05-26T18:01:09.019Z,96699.66
2019-05-26T18:06:15.408Z,96702.72
2019-05-26T18:11:21.949Z,96698.31
2019-05-26T18:16:28.085Z,96693.66
2019-05-26T18:21:34.451Z,96683.05
2019-05-26T18:26:41.157Z,96676.87
2019-05-26T18:31:47.988Z,96680.89
2019-05-26T18:36:54.518Z,96674.59
2019-05-26T18:42:01.000Z,96662.48
2019-05-26T18:47:07.267Z,96662.83
2019-05-26T18:52:13.375Z,96660.03
2019-05-26T18:57:20.142Z,96657.91
2019-05-26T19:02:26.547Z,96668.17
2019-05-26T19:07:32.640Z,96671.91
2019-05-26T19:12:38.807Z,96666.30
2019-05-26T19:17:45.574Z,96661.16
2019-05-26T19:22:53.405Z,96667.94
2019-05-26T19:28:00.107Z,96663.27
2019-05-26T19:33:06.826Z,96680.46
2019-05-26T19:38:13.868Z,96676.01
2019-05-26T19:43:20.120Z,96678.22
2019-05-26T19:48:35.638Z,96684.07
2019-05-26T19:53:34.306Z,96683.81
2019-05-26T19:58:40.783Z,96684.99
2019-05-26T20:03:47.112Z,96690.06
2019-05-26T20:08:54.319Z,96686.43
2019-05-26T20:14:00.415Z,96690.41
2019-05-26T20:19:06.887Z,96700.37
2019-05-26T20:24:13.696Z,96695.46
2019-05-26T20:29:19.865Z,96698.58
2019-05-26T20:34:25.963Z,96698.89
2019-05-26T20:39:32.404Z,96694.77
2019-05-26T20:44:38.468Z,96700.27
2019-05-26T20:49:46.073Z,96697.58
2019-05-26T20:54:52.261Z,96694.16
2019-05-26T20:59:58.858Z,96701.16
2019-05-26T21:05:05.923Z,96696.71
2019-05-26T21:10:12.855Z,96699.58
2019-05-26T21:15:20.140Z,96704.25
2019-05-26T21:20:26.650Z,96711.28
2019-05-26T21:25:33.068Z,96711.36
2019-05-26T21:30:39.695Z,96711.48
2019-05-26T21:35:46.506Z,96712.34
2019-05-26T21:40:53.192Z,96713.12
2019-05-26T21:46:00.535Z,96710.42
2019-05-26T21:51:06.979Z,96716.56
2019-05-26T21:56:13.260Z,96705.16
2019-05-26T22:01:20.157Z,96713.75
2019-05-26T22:06:26.553Z,96709.23
2019-05-26T22:11:33.555Z,96699.36
2019-05-26T22:16:39.737Z,96697.05
2019-05-26T22:21:45.904Z,96697.02
2019-05-26T22:26:52.579Z,96691.19
2019-05-26T22:31:59.271Z,96701.37
2019-05-26T22:37:05.751Z,96703.38
2019-05-26T22:42:12.146Z,96698.65
2019-05-26T22:47:18.318Z,96700.63
2019-05-26T22:52:25.119Z,96691.59
2019-05-26T22:57:32.112Z,96695.94
2019-05-26T23:02:38.272Z,96666.95
2019-05-26T23:07:45.330Z,96666.95
2019-05-26T23:12:51.857Z,96684.22
2019-05-26T23:17:58.959Z,96683.40
2019-05-26T23:23:05.151Z,96680.06
2019-05-26T23:28:12.502Z,96669.38
2019-05-26T23:33:18.938Z,96660.05
2019-05-26T23:38:25.622Z,96666.20
2019-05-26T23:43:32.711Z,96654.16
2019-05-26T23:48:39.161Z,96663.15
2019-05-26T23:53:45.587Z,96615.98
2019-05-26T23:58:52.723Z,96651.36
